»·PEaware :: N350KT KTUS-KELP

N350KT :: KTUS-KELP

FLIGHT INFORMATION

Flight Status: Arrived
Operator: Privately registered:
United States
More flights under this callsign
Pilot: Aundrey S. (17120)
Aircraft: SOCATA TBM-900
(TBM9)
More flights by this aircraft type
Origin: KTUS Tucson Intl
United States
Destination: KELP El Paso Intl
United States
More flights between these airports :: More routes between these airports
Route: TUS8 MESCA SSO J4 EWM
File this flight plan on PilotEdge
Remarks:
Altitude:
(Current/Filed)
21,000ft
Speed:
(Current/Filed)
310kts
Departed: 13-Nov-20 04:24 PM
Arrived: 13-Nov-20 05:19 PM
Distance/Time
Traveled:
233nm/0:55
Distance/Time
To Go:
Arrived

Flight Plot

Page will automatically refresh every two minutes.

Flight plan parsing failed; only flown route is shown


Map Options




Map Legend


Flown Route
Filed Route
Departure Airport
Arrival Airport
Navaid (VOR, NDB)
Fix

Horizontal Profiles

Position Reports

Time Latitude Longitude Heading Altitude Ground
Speed
13-Nov-20 15:48 32.123789 -110.944940 223 2578ft 0kts
13-Nov-20 15:50 32.123789 -110.944940 223 2578ft 0kts
13-Nov-20 15:51 32.123789 -110.944940 223 2578ft 0kts
13-Nov-20 15:52 32.123789 -110.944940 223 2578ft 0kts
13-Nov-20 15:53 32.123789 -110.944940 223 2578ft 0kts
13-Nov-20 15:54 32.123789 -110.944940 223 2578ft 0kts
13-Nov-20 15:55 32.123789 -110.944940 223 2578ft 0kts
13-Nov-20 15:56 32.123789 -110.944940 223 2578ft 0kts
13-Nov-20 15:57 32.123789 -110.944940 223 2578ft 0kts
13-Nov-20 15:58 32.123789 -110.944940 223 2578ft 0kts
13-Nov-20 15:59 32.123789 -110.944940 223 2578ft 0kts
13-Nov-20 16:00 32.123789 -110.944940 223 2578ft 0kts
13-Nov-20 16:01 32.123789 -110.944940 223 2578ft 0kts
13-Nov-20 16:02 32.123789 -110.944940 223 2578ft 0kts
13-Nov-20 16:03 32.123789 -110.944940 223 2578ft 0kts
13-Nov-20 16:04 32.123789 -110.944940 223 2578ft 0kts
13-Nov-20 16:04 32.123789 -110.944940 223 2578ft 0kts
13-Nov-20 16:06 32.123789 -110.944940 223 2578ft 0kts
13-Nov-20 16:07 32.123789 -110.944940 223 2578ft 0kts
13-Nov-20 16:07 32.123789 -110.944940 223 2578ft 0kts
13-Nov-20 16:09 32.123789 -110.944940 223 2578ft 0kts
13-Nov-20 16:10 32.123789 -110.944940 223 2578ft 0kts
13-Nov-20 16:11 32.123789 -110.944940 223 2578ft 0kts
13-Nov-20 16:11 32.123789 -110.944940 223 2578ft 0kts
13-Nov-20 16:13 32.123789 -110.944940 223 2578ft 0kts
13-Nov-20 16:13 32.123789 -110.944940 223 2578ft 0kts
13-Nov-20 16:14 32.123789 -110.944940 223 2578ft 0kts
13-Nov-20 16:15 32.123789 -110.944940 223 2578ft 0kts
13-Nov-20 16:16 32.123789 -110.944940 223 2578ft 0kts
13-Nov-20 16:17 32.122638 -110.944505 133 2581ft 20kts
13-Nov-20 16:18 32.117240 -110.938182 135 2601ft 29kts
13-Nov-20 16:19 32.111396 -110.931332 134 2622ft 25kts
13-Nov-20 16:20 32.105455 -110.924382 135 2643ft 34kts
13-Nov-20 16:21 32.102969 -110.922499 226 2649ft 0kts
13-Nov-20 16:22 32.102968 -110.922500 226 2649ft 0kts
13-Nov-20 16:23 32.108329 -110.930275 313 2749ft 119kts
13-Nov-20 16:24 32.139406 -110.936081 32 5336ft 145kts
13-Nov-20 16:25 32.136422 -110.902653 166 8058ft 138kts
13-Nov-20 16:26 32.110781 -110.869283 125 10433ft 150kts
13-Nov-20 16:27 32.087114 -110.827049 127 12578ft 160kts
13-Nov-20 16:28 32.062076 -110.782453 130 14543ft 167kts
13-Nov-20 16:29 32.035741 -110.735739 134 16338ft 174kts
13-Nov-20 16:30 32.024219 -110.680347 79 17908ft 210kts
13-Nov-20 16:31 32.038132 -110.608790 82 18992ft 236kts
13-Nov-20 16:32 32.051809 -110.530597 79 20047ft 247kts
13-Nov-20 16:33 32.066214 -110.450283 79 20859ft 258kts
13-Nov-20 16:34 32.081372 -110.364125 79 21142ft 281kts
13-Nov-20 16:35 32.097638 -110.271115 80 21136ft 293kts
13-Nov-20 16:36 32.111082 -110.193944 81 21150ft 297kts
13-Nov-20 16:37 32.126749 -110.103500 80 21179ft 320kts
13-Nov-20 16:38 32.145371 -109.995798 80 21166ft 345kts
13-Nov-20 16:39 32.164731 -109.882996 80 21157ft 352kts
13-Nov-20 16:40 32.184167 -109.769155 80 21114ft 355kts
13-Nov-20 16:41 32.203629 -109.654517 80 21084ft 355kts
13-Nov-20 16:42 32.222941 -109.540062 80 21085ft 355kts
13-Nov-20 16:43 32.242094 -109.426011 80 21087ft 354kts
13-Nov-20 16:44 32.261236 -109.311317 81 21076ft 355kts
13-Nov-20 16:45 32.263166 -109.197373 102 21079ft 347kts
13-Nov-20 16:46 32.252257 -109.083843 101 21094ft 348kts
13-Nov-20 16:47 32.241326 -108.969780 102 21116ft 348kts
13-Nov-20 16:48 32.230293 -108.855853 102 21140ft 350kts
13-Nov-20 16:49 32.219082 -108.741230 102 21160ft 351kts
13-Nov-20 16:50 32.207730 -108.626297 103 21167ft 353kts
13-Nov-20 16:51 32.196214 -108.510713 103 21168ft 354kts
13-Nov-20 16:52 32.184551 -108.394804 104 21170ft 357kts
13-Nov-20 16:53 32.172666 -108.277788 104 21157ft 357kts
13-Nov-20 16:54 32.160675 -108.160807 105 21128ft 358kts
13-Nov-20 16:55 32.148605 -108.044119 105 21108ft 358kts
13-Nov-20 16:56 32.136400 -107.927211 105 21098ft 358kts
13-Nov-20 16:57 32.124462 -107.813803 105 20640ft 337kts
13-Nov-20 16:58 32.112964 -107.705909 104 19238ft 333kts
13-Nov-20 16:59 32.101158 -107.595694 103 17846ft 340kts
13-Nov-20 17:00 32.089195 -107.484866 101 16360ft 338kts
13-Nov-20 17:01 32.077328 -107.375823 100 14874ft 331kts
13-Nov-20 17:02 32.065670 -107.269606 100 13358ft 322kts
13-Nov-20 17:03 32.054220 -107.166098 99 11838ft 313kts
13-Nov-20 17:04 32.042976 -107.065166 98 10324ft 308kts
13-Nov-20 17:05 32.031827 -106.966091 98 9013ft 296kts
13-Nov-20 17:06 32.021431 -106.873982 98 9004ft 275kts
13-Nov-20 17:07 32.011319 -106.785026 98 8999ft 272kts
13-Nov-20 17:08 32.001218 -106.696728 98 9000ft 271kts
13-Nov-20 17:09 31.991124 -106.609067 98 9001ft 270kts
13-Nov-20 17:10 31.980977 -106.521497 97 9000ft 269kts
13-Nov-20 17:11 31.970812 -106.434279 97 9000ft 268kts
13-Nov-20 17:12 31.960558 -106.346840 98 9000ft 268kts
13-Nov-20 17:13 31.930704 -106.278655 177 7984ft 247kts
13-Nov-20 17:14 31.875401 -106.311674 212 6823ft 183kts
13-Nov-20 17:15 31.849332 -106.335758 221 5117ft 84kts
13-Nov-20 17:16 31.833428 -106.355102 228 4248ft 87kts
13-Nov-20 17:17 31.818065 -106.376736 229 3934ft 68kts
13-Nov-20 17:18 31.815158 -106.379498 139 3931ft 0kts
13-Nov-20 17:19 31.815158 -106.379498 139 3931ft 0kts
13-Nov-20 17:20 31.812878 -106.380290 230 3931ft 22kts
13-Nov-20 17:21 31.807892 -106.387110 223 3926ft 28kts
13-Nov-20 17:22 31.803090 -106.392396 222 3920ft 9kts
13-Nov-20 17:23 31.799965 -106.390407 133 3920ft 29kts
13-Nov-20 17:24 31.796845 -106.386822 134 3927ft 0kts

Navigation Log

Ident Type
Flight plan parsing failed, navigation log unavailable